Roscoe, Pennsylvania
Current Conditions -  °F | °C
As of 10:53 PM on Tuesday 27 Jan 2015 (Local Time) from KAGC Reporting Station
Overcast Overcast  
Wind Chill: -15°   Ceiling: 2100
Heat Index: -8°   Visibility: 10mi
Dew Point: -13°   Wind: 10mph
Humidity: 71%   Direction: 330°NNW
Pressure: 30.09"   Gusts: NA
Location:  40.08°N, 79.87°W
Report Text: KAGC 280353Z 33009KT 10SM OVC021 M08/M13 A3009 RMK AO2 SNB00E11 SLP214 P0000 T10831128
Loading
Personal Weather Stations






























Interactive Weather Map New forecast layout! Learn more

10-Day Weather Forecast

Advertisements
Track Severe Weather on mobile